Time;durP1;ratioP1;P1;durP2;ratioP2;P2;SDS_P1;SDS_P2;PMS_P1;PMS_P2;Temp;Humidity;BMP_temperature;BMP_pressure;BME280_temperature;BME280_humidity;BME280_pressure;Samples;Min_cycle;Max_cycle;Signal;HPM_P1;HPM_P2
2021/03/23 00:00:33;;;;;;;6.35;3.10;;;6.50;87.00;;;;;;4993302;28;20041;-49
2021/03/23 00:03:12;;;;;;;5.78;2.97;;;6.50;86.80;;;;;;4997956;28;20034;-55
2021/03/23 00:05:39;;;;;;;6.93;3.25;;;6.50;86.90;;;;;;4993983;28;20030;-52
2021/03/23 00:08:07;;;;;;;8.43;3.92;;;6.50;86.80;;;;;;4995988;28;20089;-51
2021/03/23 00:10:33;;;;;;;6.70;3.38;;;6.50;86.80;;;;;;4992135;28;20483;-52
2021/03/23 00:12:59;;;;;;;7.65;3.38;;;6.50;87.00;;;;;;5003686;28;20105;-53
2021/03/23 00:15:25;;;;;;;7.20;2.88;;;6.50;87.10;;;;;;4984177;28;20229;-52
2021/03/23 00:17:52;;;;;;;7.72;3.50;;;6.50;87.00;;;;;;4996605;28;20085;-58
2021/03/23 00:20:21;;;;;;;4.57;2.83;;;6.50;87.10;;;;;;4991422;28;20497;-54
2021/03/23 00:22:47;;;;;;;5.25;3.13;;;6.50;87.00;;;;;;4992356;28;20526;-53
2021/03/23 00:25:14;;;;;;;5.78;2.65;;;6.60;87.10;;;;;;4991434;28;20074;-52
2021/03/23 00:27:40;;;;;;;9.50;3.42;;;6.60;87.20;;;;;;4992165;28;20057;-55
2021/03/23 00:30:11;;;;;;;6.18;2.90;;;6.50;87.10;;;;;;4993131;28;20070;-54
2021/03/23 00:32:37;;;;;;;7.88;3.42;;;6.50;87.20;;;;;;4992145;28;20030;-54
2021/03/23 00:35:05;;;;;;;6.43;2.90;;;6.60;87.30;;;;;;4971384;28;20046;-52
2021/03/23 00:37:32;;;;;;;6.25;3.00;;;6.50;87.30;;;;;;4990489;28;20062;-54
2021/03/23 00:39:59;;;;;;;7.15;3.00;;;6.50;87.60;;;;;;4987796;28;20085;-55
2021/03/23 00:42:25;;;;;;;9.52;3.20;;;6.50;87.60;;;;;;4989038;28;20050;-55
2021/03/23 00:44:52;;;;;;;5.35;2.72;;;6.40;87.70;;;;;;4988499;28;20737;-55
2021/03/23 00:47:18;;;;;;;6.47;3.28;;;6.40;87.60;;;;;;4991840;28;20046;-54
2021/03/23 00:49:44;;;;;;;7.45;3.30;;;6.40;87.80;;;;;;4992846;28;20054;-52
2021/03/23 00:52:10;;;;;;;7.93;3.33;;;6.40;87.90;;;;;;4992408;28;20042;-51
2021/03/23 00:54:36;;;;;;;6.28;2.88;;;6.50;88.20;;;;;;4992541;28;20042;-51
2021/03/23 00:57:01;;;;;;;8.48;3.40;;;6.40;87.90;;;;;;4992699;28;20043;-54
2021/03/23 00:59:27;;;;;;;7.93;3.45;;;6.40;88.20;;;;;;4992830;28;20133;-55
2021/03/23 01:01:53;;;;;;;4.97;2.90;;;6.40;88.10;;;;;;4994111;28;20049;-52
2021/03/23 01:04:18;;;;;;;5.88;3.25;;;6.40;88.30;;;;;;4992810;28;20065;-54
2021/03/23 01:06:44;;;;;;;10.50;3.58;;;6.40;88.20;;;;;;4993772;28;20047;-52
2021/03/23 01:09:10;;;;;;;5.57;2.70;;;6.40;88.40;;;;;;4990879;28;20056;-51
2021/03/23 01:11:36;;;;;;;7.60;3.28;;;6.40;88.30;;;;;;4991777;28;20106;-52
2021/03/23 01:14:02;;;;;;;6.45;3.00;;;6.40;88.40;;;;;;4992896;28;20118;-53
2021/03/23 01:16:28;;;;;;;11.57;3.25;;;6.40;88.30;;;;;;4993194;28;20046;-51
2021/03/23 01:18:53;;;;;;;7.75;3.10;;;6.50;88.20;;;;;;4990107;28;20110;-54
2021/03/23 01:21:19;;;;;;;8.73;3.33;;;6.40;88.10;;;;;;4990852;28;20053;-54
2021/03/23 01:23:45;;;;;;;6.25;3.13;;;6.40;88.30;;;;;;4989166;28;20386;-51
2021/03/23 01:26:11;;;;;;;5.85;3.33;;;6.40;88.80;;;;;;4991619;28;20037;-55
2021/03/23 01:28:37;;;;;;;7.55;3.33;;;6.40;88.60;;;;;;5007070;28;20046;-55
2021/03/23 01:31:03;;;;;;;6.90;3.38;;;6.40;88.50;;;;;;4992680;28;20041;-52
2021/03/23 01:33:30;;;;;;;6.55;3.25;;;6.40;88.60;;;;;;4989957;28;20487;-52
2021/03/23 01:35:56;;;;;;;7.45;3.10;;;6.40;88.50;;;;;;4991912;28;20042;-52
2021/03/23 01:38:21;;;;;;;7.32;3.30;;;6.40;88.60;;;;;;4992771;28;20089;-54
2021/03/23 01:40:48;;;;;;;7.85;3.30;;;6.40;88.60;;;;;;4984685;28;20460;-55
2021/03/23 01:43:30;;;;;;;7.80;3.85;;;6.40;88.30;;;;;;4991624;28;20042;-55
2021/03/23 01:45:59;;;;;;;10.98;3.80;;;6.40;88.50;;;;;;4989304;28;20058;-51
2021/03/23 01:48:33;;;;;;;7.97;3.58;;;6.40;88.10;;;;;;4990736;28;20054;-54
2021/03/23 01:51:02;;;;;;;8.48;3.60;;;6.40;88.20;;;;;;4984342;28;20034;-53
2021/03/23 01:53:36;;;;;;;9.70;4.07;;;6.40;88.40;;;;;;4989100;28;20097;-53
2021/03/23 01:56:03;;;;;;;7.05;3.72;;;6.40;88.50;;;;;;4984133;28;20121;-53
2021/03/23 01:58:29;;;;;;;12.73;3.70;;;6.40;88.50;;;;;;4982227;28;20069;-52
2021/03/23 02:00:55;;;;;;;10.57;3.53;;;6.40;88.50;;;;;;4991931;28;20403;-50
2021/03/23 02:03:23;;;;;;;7.32;3.67;;;6.40;88.50;;;;;;4991432;28;20050;-52
2021/03/23 02:05:59;;;;;;;7.75;3.65;;;6.40;88.50;;;;;;4992154;28;20043;-53
2021/03/23 02:08:26;;;;;;;6.95;3.95;;;6.40;88.60;;;;;;4985826;28;20061;-52
2021/03/23 02:10:58;;;;;;;9.43;4.03;;;6.30;88.80;;;;;;4990408;28;20049;-53
2021/03/23 02:13:24;;;;;;;10.35;4.20;;;6.30;88.60;;;;;;4991930;28;20046;-50
2021/03/23 02:15:51;;;;;;;8.32;4.38;;;6.30;88.50;;;;;;4993962;28;20101;-54
2021/03/23 02:18:23;;;;;;;7.68;3.75;;;6.30;88.60;;;;;;4987627;28;20503;-51
2021/03/23 02:21:15;;;;;;;8.32;4.20;;;6.30;88.60;;;;;;4992116;28;20030;-52
2021/03/23 02:23:48;;;;;;;9.07;4.30;;;6.20;88.60;;;;;;4993403;28;20052;-53
2021/03/23 02:26:19;;;;;;;7.15;4.22;;;6.20;88.50;;;;;;4984326;28;20038;-54
2021/03/23 02:28:54;;;;;;;6.75;4.10;;;6.10;88.60;;;;;;4991788;28;20125;-51
2021/03/23 02:31:23;;;;;;;9.80;4.50;;;6.00;88.70;;;;;;4990458;28;20042;-54
2021/03/23 02:33:49;;;;;;;12.82;5.55;;;6.00;88.90;;;;;;4992119;28;20039;-53
2021/03/23 02:36:15;;;;;;;10.73;5.10;;;6.00;88.90;;;;;;4992656;28;20046;-54
2021/03/23 02:38:41;;;;;;;10.70;4.78;;;5.90;88.80;;;;;;4987654;28;20042;-56
2021/03/23 02:41:07;;;;;;;10.05;5.00;;;5.90;89.10;;;;;;4983774;28;20071;-53
2021/03/23 02:43:33;;;;;;;9.82;4.80;;;5.90;89.10;;;;;;4990812;28;20438;-53
2021/03/23 02:45:59;;;;;;;10.05;5.90;;;5.90;89.20;;;;;;4995118;28;20041;-52
2021/03/23 02:48:24;;;;;;;10.07;5.90;;;5.80;89.00;;;;;;4991833;28;20040;-52
2021/03/23 02:50:51;;;;;;;7.22;4.97;;;5.80;89.20;;;;;;4995140;28;20081;-50
2021/03/23 02:53:17;;;;;;;9.60;5.03;;;5.80;89.30;;;;;;4992379;28;20042;-51
2021/03/23 02:55:45;;;;;;;10.50;5.38;;;5.80;89.10;;;;;;5007934;28;20070;-53
2021/03/23 02:58:11;;;;;;;9.63;5.63;;;5.70;89.30;;;;;;4992042;28;20479;-54
2021/03/23 03:00:36;;;;;;;10.10;6.22;;;5.70;89.40;;;;;;4993784;28;20042;-52
2021/03/23 03:03:02;;;;;;;9.55;5.53;;;5.60;89.50;;;;;;4997601;28;20052;-51
2021/03/23 03:05:29;;;;;;;13.60;5.70;;;5.60;89.50;;;;;;4991285;28;20031;-51
2021/03/23 03:07:54;;;;;;;10.65;5.07;;;5.60;89.70;;;;;;4997065;28;20042;-51
2021/03/23 03:10:20;;;;;;;10.90;5.57;;;5.60;89.80;;;;;;4990785;28;20046;-53
2021/03/23 03:12:47;;;;;;;10.15;5.20;;;5.50;89.90;;;;;;4994205;28;20479;-51
2021/03/23 03:15:14;;;;;;;10.23;5.55;;;5.50;89.70;;;;;;4995773;28;20039;-50
2021/03/23 03:17:40;;;;;;;11.43;5.75;;;5.50;89.70;;;;;;4996844;28;20118;-55
2021/03/23 03:20:08;;;;;;;8.98;5.60;;;5.50;89.80;;;;;;4976135;28;20410;-54
2021/03/23 03:22:34;;;;;;;8.48;5.53;;;5.40;89.70;;;;;;4989943;28;20062;-53
2021/03/23 03:24:59;;;;;;;10.82;5.43;;;5.40;89.60;;;;;;4995000;28;20062;-52
2021/03/23 03:27:25;;;;;;;11.30;5.13;;;5.40;89.50;;;;;;4995036;28;20107;-50
2021/03/23 03:29:51;;;;;;;10.75;5.90;;;5.40;89.60;;;;;;4995100;28;20042;-54
2021/03/23 03:32:16;;;;;;;11.02;6.20;;;5.40;89.70;;;;;;4996785;28;20062;-50
2021/03/23 03:34:42;;;;;;;11.38;5.95;;;5.40;90.00;;;;;;4994360;28;20042;-51
2021/03/23 03:37:08;;;;;;;12.25;5.63;;;5.40;90.00;;;;;;4990422;28;20093;-54
2021/03/23 03:39:34;;;;;;;10.60;5.70;;;5.40;90.10;;;;;;4996221;28;20042;-55
2021/03/23 03:42:00;;;;;;;10.23;6.40;;;5.40;90.10;;;;;;4993665;28;20076;-50
2021/03/23 03:44:26;;;;;;;11.85;6.38;;;5.50;90.10;;;;;;4991615;28;20154;-51
2021/03/23 03:46:52;;;;;;;11.25;6.43;;;5.50;90.10;;;;;;4992156;28;20042;-53
2021/03/23 03:49:18;;;;;;;17.33;6.68;;;5.60;90.10;;;;;;4995286;28;20046;-51
2021/03/23 03:51:44;;;;;;;13.02;6.57;;;5.60;90.00;;;;;;4995138;28;20046;-50
2021/03/23 03:54:10;;;;;;;11.73;6.38;;;5.70;90.00;;;;;;4993376;28;20040;-52
2021/03/23 03:56:36;;;;;;;14.45;6.75;;;5.70;90.00;;;;;;5011679;28;20072;-55
2021/03/23 03:59:02;;;;;;;12.23;6.72;;;5.80;89.90;;;;;;4987081;28;20056;-50
2021/03/23 04:01:27;;;;;;;14.48;6.30;;;5.70;89.70;;;;;;4989186;28;20495;-54
2021/03/23 04:03:53;;;;;;;11.32;6.55;;;5.70;89.60;;;;;;4993340;28;20468;-50
2021/03/23 04:06:20;;;;;;;11.45;6.68;;;5.70;89.70;;;;;;4994015;28;20039;-53
2021/03/23 04:08:45;;;;;;;11.07;6.22;;;5.80;89.90;;;;;;4995093;28;20042;-51
2021/03/23 04:11:11;;;;;;;14.02;7.00;;;5.80;89.80;;;;;;4994144;28;20410;-53
2021/03/23 04:13:38;;;;;;;13.63;6.50;;;5.80;89.50;;;;;;4993466;28;20096;-51
2021/03/23 04:16:05;;;;;;;12.75;6.30;;;5.80;89.60;;;;;;4993774;28;20062;-50
2021/03/23 04:18:31;;;;;;;11.73;6.97;;;5.80;89.50;;;;;;4994808;28;20037;-53
2021/03/23 04:21:00;;;;;;;10.77;6.70;;;5.90;89.80;;;;;;4974935;28;20415;-52
2021/03/23 04:23:35;;;;;;;12.38;7.32;;;5.90;89.50;;;;;;4993433;28;20406;-50
2021/03/23 04:26:01;;;;;;;15.10;7.60;;;5.90;89.40;;;;;;5004538;28;20622;-51
2021/03/23 04:28:27;;;;;;;11.90;7.70;;;5.90;89.30;;;;;;4990821;28;20069;-54
2021/03/23 04:30:53;;;;;;;14.05;7.93;;;5.80;89.20;;;;;;4993470;28;20486;-53
2021/03/23 04:33:21;;;;;;;15.88;7.65;;;5.80;89.40;;;;;;4989964;28;20469;-54
2021/03/23 04:35:51;;;;;;;13.27;8.02;;;5.80;89.50;;;;;;5008038;28;20038;-55
2021/03/23 04:38:20;;;;;;;12.45;7.13;;;5.80;89.50;;;;;;4989078;28;20050;-53
2021/03/23 04:40:47;;;;;;;13.27;7.85;;;5.80;89.30;;;;;;4994099;28;20065;-54
2021/03/23 04:43:19;;;;;;;12.50;7.95;;;5.80;89.40;;;;;;4989392;28;20042;-50
2021/03/23 04:45:46;;;;;;;12.98;7.72;;;5.80;89.40;;;;;;4992423;28;20053;-51
2021/03/23 04:48:12;;;;;;;13.98;8.27;;;5.80;89.20;;;;;;4989753;28;20411;-53
2021/03/23 04:50:37;;;;;;;17.85;8.13;;;5.80;89.20;;;;;;4993400;28;20042;-55
2021/03/23 04:53:03;;;;;;;13.32;7.75;;;5.80;89.20;;;;;;4992823;28;20034;-51
2021/03/23 04:55:29;;;;;;;13.85;8.55;;;5.80;89.30;;;;;;4992526;28;20038;-50
2021/03/23 04:57:54;;;;;;;16.92;8.52;;;5.80;89.30;;;;;;4992183;28;20486;-50
2021/03/23 05:00:20;;;;;;;15.60;9.13;;;5.80;89.40;;;;;;4992525;28;20046;-51
2021/03/23 05:02:46;;;;;;;15.05;8.13;;;5.70;89.30;;;;;;4992941;28;20038;-52
2021/03/23 05:05:12;;;;;;;18.30;9.02;;;5.80;89.50;;;;;;4991015;28;20404;-55
2021/03/23 05:07:39;;;;;;;17.02;9.07;;;5.70;89.30;;;;;;4992892;28;20402;-52
2021/03/23 05:10:11;;;;;;;15.05;8.93;;;5.70;89.30;;;;;;4990150;28;20034;-52
2021/03/23 05:12:37;;;;;;;14.18;9.18;;;5.70;89.30;;;;;;4988357;28;20525;-54
2021/03/23 05:15:03;;;;;;;13.70;8.57;;;5.70;89.20;;;;;;4991441;28;20038;-55
2021/03/23 05:17:29;;;;;;;16.85;9.18;;;5.70;89.50;;;;;;4991749;28;20046;-51
2021/03/23 05:19:55;;;;;;;15.23;8.98;;;5.70;89.50;;;;;;4992546;28;20052;-54
2021/03/23 05:22:21;;;;;;;17.05;8.93;;;5.70;89.60;;;;;;4990632;28;20121;-51
2021/03/23 05:24:47;;;;;;;19.25;9.38;;;5.70;89.60;;;;;;4991792;28;20165;-53
2021/03/23 05:27:12;;;;;;;15.95;9.88;;;5.70;89.40;;;;;;4991641;28;20050;-51
2021/03/23 05:29:38;;;;;;;17.75;9.63;;;5.60;89.50;;;;;;4992193;28;20058;-51
2021/03/23 05:32:05;;;;;;;16.88;9.45;;;5.70;89.50;;;;;;4990206;28;20097;-54
2021/03/23 05:34:30;;;;;;;21.55;10.40;;;5.60;89.50;;;;;;4991164;28;20169;-53
2021/03/23 05:36:56;;;;;;;14.80;9.63;;;5.70;89.50;;;;;;4986034;28;20039;-51
2021/03/23 05:39:22;;;;;;;16.15;8.93;;;5.70;89.60;;;;;;4991847;28;20046;-54
2021/03/23 05:42:06;;;;;;;16.63;9.73;;;5.70;89.50;;;;;;4990884;28;20042;-53
2021/03/23 05:44:46;;;;;;;18.55;9.50;;;5.70;89.40;;;;;;4991637;28;20046;-54
2021/03/23 05:47:19;;;;;;;17.90;9.73;;;5.70;89.30;;;;;;4990254;28;20039;-53
2021/03/23 05:50:07;;;;;;;16.88;9.60;;;5.70;89.30;;;;;;4991768;28;20038;-53
2021/03/23 05:52:55;;;;;;;19.00;9.98;;;5.70;89.30;;;;;;4991058;28;20531;-55
2021/03/23 05:55:38;;;;;;;14.98;9.23;;;5.70;89.30;;;;;;4987186;28;20042;-54
2021/03/23 05:58:05;;;;;;;19.08;10.23;;;5.70;89.20;;;;;;4989678;28;20510;-53
2021/03/23 06:00:35;;;;;;;20.55;10.57;;;5.70;89.10;;;;;;4986260;28;20526;-56
2021/03/23 06:03:25;;;;;;;18.70;9.88;;;5.70;89.20;;;;;;4994457;28;20038;-56
2021/03/23 06:06:29;;;;;;;19.48;9.93;;;5.70;89.20;;;;;;4987769;28;20121;-54
2021/03/23 06:08:54;;;;;;;;;;;5.70;89.20;;;;;;4985930;28;20558;-55
2021/03/23 06:11:41;;;;;;;17.95;10.25;;;5.80;89.50;;;;;;4989798;28;20012;-55
2021/03/23 06:14:22;;;;;;;19.75;10.73;;;5.80;89.20;;;;;;4987709;28;20039;-53
2021/03/23 06:17:08;;;;;;;19.85;9.70;;;5.80;89.00;;;;;;4987829;28;20185;-54
2021/03/23 06:19:44;;;;;;;19.15;10.70;;;5.80;89.00;;;;;;4991238;28;20039;-54
2021/03/23 06:22:32;;;;;;;19.48;10.70;;;5.90;89.00;;;;;;4986830;28;20034;-55
2021/03/23 06:25:31;;;;;;;23.08;11.43;;;5.90;88.90;;;;;;4987506;28;20049;-56
2021/03/23 06:28:15;;;;;;;18.77;10.60;;;6.00;89.00;;;;;;4981066;28;20466;-56
2021/03/23 06:30:45;;;;;;;20.85;11.40;;;6.00;88.90;;;;;;4987687;28;20463;-55
2021/03/23 06:33:16;;;;;;;22.20;11.23;;;6.00;88.90;;;;;;4985939;28;20042;-55
2021/03/23 06:35:52;;;;;;;22.02;11.13;;;6.00;88.80;;;;;;4998156;28;20062;-54
2021/03/23 06:38:37;;;;;;;19.58;11.05;;;6.10;88.70;;;;;;4984684;28;20502;-52
2021/03/23 06:41:11;;;;;;;25.05;12.10;;;6.10;88.50;;;;;;4985466;28;20097;-55
2021/03/23 06:43:38;;;;;;;24.83;12.27;;;6.10;88.50;;;;;;4988062;28;20073;-54
2021/03/23 06:46:16;;;;;;;23.65;12.68;;;6.10;88.40;;;;;;4987255;28;20066;-55
2021/03/23 06:48:42;;;;;;;24.80;12.55;;;6.20;88.20;;;;;;4982890;28;20112;-56
2021/03/23 06:51:15;;;;;;;24.48;13.15;;;6.20;88.50;;;;;;4978920;28;20038;-54
2021/03/23 06:53:42;;;;;;;25.10;13.02;;;6.30;87.70;;;;;;4983454;28;20042;-51
2021/03/23 06:56:13;;;;;;;23.23;12.98;;;6.30;87.40;;;;;;4985766;28;20046;-51
2021/03/23 06:58:39;;;;;;;27.83;13.93;;;6.30;87.40;;;;;;4987022;28;20465;-53
2021/03/23 07:01:20;;;;;;;25.23;13.65;;;6.30;87.40;;;;;;4989325;28;20457;-53
2021/03/23 07:03:52;;;;;;;26.23;14.23;;;6.40;87.40;;;;;;4966980;28;20042;-53
2021/03/23 07:06:23;;;;;;;24.85;13.70;;;6.40;87.30;;;;;;4979263;28;20077;-53
2021/03/23 07:09:22;;;;;;;25.88;14.15;;;6.50;87.10;;;;;;4979491;28;20030;-53
2021/03/23 07:12:04;;;;;;;25.80;14.55;;;6.50;87.10;;;;;;4996100;28;20038;-54
2021/03/23 07:14:30;;;;;;;;;;;6.60;86.70;;;;;;4981127;28;20477;-52
2021/03/23 07:17:10;;;;;;;34.15;15.02;;;6.60;85.90;;;;;;4977638;28;19922;-53
2021/03/23 07:19:59;;;;;;;25.83;15.82;;;6.70;86.30;;;;;;4978226;28;20042;-52
2021/03/23 07:22:40;;;;;;;34.33;16.95;;;6.70;86.10;;;;;;4981471;28;20113;-55
2021/03/23 07:25:40;;;;;;;29.38;16.15;;;6.70;86.10;;;;;;4982393;28;20137;-52
2021/03/23 07:28:36;;;;;;;30.05;16.73;;;6.80;86.40;;;;;;4982017;28;20054;-53
2021/03/23 07:31:14;;;;;;;30.40;17.13;;;6.90;86.10;;;;;;4979704;28;20046;-54
2021/03/23 07:33:47;;;;;;;33.45;18.02;;;7.00;85.70;;;;;;4983558;28;20074;-52
2021/03/23 07:36:18;;;;;;;33.00;18.65;;;7.00;85.70;;;;;;4979244;28;20051;-54
2021/03/23 07:38:52;;;;;;;37.03;18.83;;;7.00;85.40;;;;;;4980382;28;20034;-55
2021/03/23 07:41:32;;;;;;;38.97;19.73;;;7.10;85.30;;;;;;4979201;28;20046;-54
2021/03/23 07:44:09;;;;;;;36.95;20.05;;;7.20;85.30;;;;;;4981332;28;20395;-53
2021/03/23 07:46:42;;;;;;;36.40;20.20;;;7.20;85.20;;;;;;4989150;28;20506;-53
2021/03/23 07:49:35;;;;;;;38.17;20.27;;;7.20;85.20;;;;;;4979936;28;20058;-54
2021/03/23 07:52:12;;;;;;;38.42;19.77;;;7.30;85.50;;;;;;4979845;28;20122;-53
2021/03/23 07:54:39;;;;;;;43.05;21.20;;;7.30;85.40;;;;;;4984277;28;20053;-55
2021/03/23 07:57:43;;;;;;;38.75;21.00;;;7.30;85.30;;;;;;4979927;28;20041;-52
2021/03/23 08:00:25;;;;;;;35.95;21.52;;;7.40;85.00;;;;;;4979068;28;20042;-53
2021/03/23 08:03:16;;;;;;;42.30;21.60;;;7.40;85.00;;;;;;4976720;28;20043;-54
2021/03/23 08:06:02;;;;;;;39.25;22.00;;;7.50;85.00;;;;;;4978313;28;20054;-52
2021/03/23 08:08:36;;;;;;;37.22;21.88;;;7.50;85.00;;;;;;4991208;28;20121;-55
2021/03/23 08:11:14;;;;;;;40.40;22.02;;;7.60;84.60;;;;;;5001218;28;20078;-55
2021/03/23 08:13:52;;;;;;;42.05;22.90;;;7.60;85.10;;;;;;4989916;28;20137;-55
2021/03/23 08:16:31;;;;;;;41.00;22.48;;;7.70;85.00;;;;;;4988103;28;20066;-55
2021/03/23 08:19:11;;;;;;;39.25;22.83;;;7.70;84.90;;;;;;4990333;28;20479;-52
2021/03/23 08:22:08;;;;;;;40.90;23.70;;;7.80;84.90;;;;;;4991348;28;20035;-55
2021/03/23 08:25:04;;;;;;;40.72;23.27;;;7.90;84.60;;;;;;4985814;28;20084;-55
2021/03/23 08:27:51;;;;;;;37.38;22.05;;;8.00;84.60;;;;;;4987881;28;20498;-53
2021/03/23 08:30:47;;;;;;;44.53;23.77;;;8.10;84.30;;;;;;4992859;28;20494;-53
2021/03/23 08:33:23;;;;;;;45.75;24.98;;;8.30;84.70;;;;;;4999066;28;20074;-54
2021/03/23 08:35:56;;;;;;;38.63;23.30;;;8.50;83.80;;;;;;4984229;28;20125;-53
2021/03/23 08:38:40;;;;;;;41.97;24.17;;;8.70;83.10;;;;;;4981428;28;20046;-53
2021/03/23 08:41:15;;;;;;;39.17;23.00;;;8.80;82.90;;;;;;4999710;28;20402;-56
2021/03/23 08:43:43;;;;;;;42.40;23.55;;;8.90;82.60;;;;;;4982896;28;20039;-52
2021/03/23 08:46:18;;;;;;;43.15;24.20;;;9.00;81.50;;;;;;4987001;28;20070;-60
2021/03/23 08:48:53;;;;;;;45.00;24.35;;;9.00;81.20;;;;;;4988235;28;20038;-54
2021/03/23 08:51:24;;;;;;;43.60;25.08;;;9.00;80.80;;;;;;4988796;28;20069;-55
2021/03/23 08:53:54;;;;;;;44.72;24.33;;;9.10;80.80;;;;;;4981555;28;20114;-50
2021/03/23 08:56:41;;;;;;;41.95;24.10;;;9.20;80.00;;;;;;4990350;28;20704;-52
2021/03/23 08:59:33;;;;;;;39.95;24.55;;;9.30;79.70;;;;;;4990575;28;20050;-52
2021/03/23 09:02:27;;;;;;;45.13;25.05;;;9.30;78.50;;;;;;4985427;28;20136;-54
2021/03/23 09:04:58;;;;;;;40.35;25.05;;;9.30;78.40;;;;;;4979217;28;20153;-53
2021/03/23 09:07:28;;;;;;;45.50;26.45;;;9.40;78.70;;;;;;4987391;28;20100;-52
2021/03/23 09:09:54;;;;;;;40.05;26.17;;;9.40;78.10;;;;;;4983684;28;20038;-54
2021/03/23 09:12:42;;;;;;;44.88;25.85;;;9.50;77.80;;;;;;4988257;28;20053;-52
2021/03/23 09:15:24;;;;;;;43.55;25.88;;;9.40;76.80;;;;;;4986781;28;20089;-51
2021/03/23 09:18:02;;;;;;;49.13;27.85;;;9.50;77.30;;;;;;4989879;28;20138;-51
2021/03/23 09:20:31;;;;;;;53.38;28.88;;;9.50;77.50;;;;;;4985769;28;20495;-54
2021/03/23 09:23:23;;;;;;;48.03;27.45;;;9.60;77.50;;;;;;4988670;28;20414;-52
2021/03/23 09:26:01;;;;;;;48.60;28.15;;;9.70;76.20;;;;;;4985878;28;20042;-52
2021/03/23 09:28:31;;;;;;;47.17;29.65;;;9.70;77.20;;;;;;4989683;28;20090;-51
2021/03/23 09:30:59;;;;;;;53.40;29.58;;;9.80;77.20;;;;;;4992221;28;20045;-50
2021/03/23 09:33:25;;;;;;;50.28;29.08;;;9.90;76.80;;;;;;4989600;28;20052;-52
2021/03/23 09:36:10;;;;;;;47.50;28.13;;;10.00;77.60;;;;;;4982936;28;20122;-50
2021/03/23 09:38:45;;;;;;;53.42;28.83;;;10.10;77.30;;;;;;4987045;28;20114;-51
2021/03/23 09:41:20;;;;;;;46.65;28.00;;;10.20;76.40;;;;;;4990927;28;20105;-51
2021/03/23 09:43:50;;;;;;;46.25;27.25;;;10.20;76.00;;;;;;4986721;28;20286;-51
2021/03/23 09:46:25;;;;;;;48.08;28.33;;;10.00;75.80;;;;;;4987897;28;20459;-53
2021/03/23 09:49:12;;;;;;;49.72;27.65;;;10.00;76.90;;;;;;4990878;28;20132;-53
2021/03/23 09:52:06;;;;;;;51.97;30.25;;;9.90;76.70;;;;;;4985513;28;20491;-53
2021/03/23 09:54:35;;;;;;;52.55;31.30;;;9.70;78.00;;;;;;4989741;28;20050;-54
2021/03/23 09:57:11;;;;;;;54.50;32.60;;;9.70;78.70;;;;;;4988177;28;20046;-50
2021/03/23 09:59:44;;;;;;;55.33;31.25;;;9.70;79.30;;;;;;4985124;28;20045;-51
2021/03/23 10:02:32;;;;;;;54.50;34.38;;;9.60;79.60;;;;;;4990933;28;20175;-52
2021/03/23 10:05:21;;;;;;;56.90;33.50;;;9.70;79.50;;;;;;4985343;28;20065;-52
2021/03/23 10:07:49;;;;;;;54.83;32.75;;;9.70;77.30;;;;;;4987484;28;20501;-53
2021/03/23 10:10:41;;;;;;;55.53;32.88;;;9.70;79.20;;;;;;4986678;28;20418;-51
2021/03/23 10:13:36;;;;;;;61.43;35.13;;;9.60;79.50;;;;;;4983489;28;20089;-54
2021/03/23 10:16:08;;;;;;;54.88;34.38;;;9.50;79.60;;;;;;4988713;28;20408;-52
2021/03/23 10:18:38;;;;;;;55.65;34.22;;;9.40;80.20;;;;;;4980336;28;20446;-53
2021/03/23 10:21:12;;;;;;;58.25;34.28;;;9.40;79.30;;;;;;4986307;28;20038;-50
2021/03/23 10:23:43;;;;;;;59.42;35.15;;;9.30;79.60;;;;;;4990110;28;20050;-54
2021/03/23 10:26:09;;;;;;;65.38;35.60;;;9.20;80.40;;;;;;4968437;28;20051;-51
2021/03/23 10:28:39;;;;;;;61.40;35.45;;;9.10;81.10;;;;;;4985058;28;20061;-52
2021/03/23 10:31:10;;;;;;;66.03;37.30;;;9.20;81.40;;;;;;4987679;28;20038;-51
2021/03/23 10:33:39;;;;;;;65.78;37.72;;;9.10;81.10;;;;;;4986346;28;20435;-53
2021/03/23 10:36:07;;;;;;;66.03;38.05;;;9.10;81.30;;;;;;4986698;28;20062;-54
2021/03/23 10:38:43;;;;;;;71.13;36.80;;;9.00;81.10;;;;;;4983246;28;20050;-51
2021/03/23 10:41:18;;;;;;;64.78;38.30;;;9.00;81.30;;;;;;4988049;28;20045;-53
2021/03/23 10:43:47;;;;;;;64.25;36.85;;;9.00;81.60;;;;;;4985102;28;20085;-51
2021/03/23 10:46:31;;;;;;;66.03;38.33;;;8.90;81.90;;;;;;4982996;28;20074;-53
2021/03/23 10:49:27;;;;;;;72.75;38.63;;;9.00;81.30;;;;;;4985474;28;20517;-50
2021/03/23 10:52:00;;;;;;;71.10;36.97;;;8.90;81.90;;;;;;4986912;28;20478;-53
2021/03/23 10:54:33;;;;;;;71.38;37.63;;;8.90;81.70;;;;;;4988259;28;20502;-53
2021/03/23 10:57:21;;;;;;;69.45;37.95;;;8.90;82.00;;;;;;4992085;28;20077;-52
2021/03/23 10:59:47;;;;;;;70.63;37.88;;;8.90;81.80;;;;;;4989041;28;20124;-54
2021/03/23 11:02:13;;;;;;;72.35;37.80;;;8.90;82.00;;;;;;4982366;28;20066;-54
2021/03/23 11:04:56;;;;;;;71.68;38.67;;;8.80;81.90;;;;;;4992575;28;20483;-51
2021/03/23 11:07:25;;;;;;;67.72;37.67;;;8.90;81.80;;;;;;4993236;28;20050;-53
2021/03/23 11:09:52;;;;;;;72.82;39.22;;;9.00;81.50;;;;;;4992068;28;20088;-54
2021/03/23 11:12:18;;;;;;;66.10;38.17;;;8.90;81.90;;;;;;4992568;28;20050;-52
2021/03/23 11:14:44;;;;;;;74.03;38.45;;;8.80;82.60;;;;;;4987098;28;20409;-52
2021/03/23 11:17:15;;;;;;;70.75;38.90;;;8.80;82.00;;;;;;4990093;28;20058;-52
2021/03/23 11:19:44;;;;;;;74.00;38.45;;;8.90;83.00;;;;;;4992899;28;20066;-54
2021/03/23 11:22:18;;;;;;;65.85;36.63;;;8.80;82.30;;;;;;4991543;28;20039;-53
2021/03/23 11:24:43;;;;;;;67.25;37.63;;;8.90;81.80;;;;;;4987388;28;20433;-52
2021/03/23 11:27:10;;;;;;;73.45;40.53;;;8.90;81.40;;;;;;4992166;28;20454;-51
2021/03/23 11:29:36;;;;;;;72.25;40.53;;;8.90;82.00;;;;;;4987947;28;20085;-52
2021/03/23 11:32:02;;;;;;;78.85;39.33;;;8.90;82.10;;;;;;4994686;28;20054;-50
2021/03/23 11:34:28;;;;;;;70.75;38.63;;;8.90;82.20;;;;;;4981994;28;20062;-54
2021/03/23 11:36:54;;;;;;;77.93;41.03;;;8.90;81.60;;;;;;4993266;28;20081;-53
2021/03/23 11:39:21;;;;;;;75.78;40.15;;;9.00;81.60;;;;;;4989781;28;20458;-53
2021/03/23 11:42:01;;;;;;;77.50;40.03;;;9.00;81.90;;;;;;4996326;28;20042;-53
2021/03/23 11:44:31;;;;;;;72.45;38.38;;;9.00;82.40;;;;;;4992731;28;20069;-53
2021/03/23 11:47:10;;;;;;;76.93;41.40;;;9.10;82.30;;;;;;4992773;28;20057;-52
2021/03/23 11:49:56;;;;;;;76.82;41.60;;;9.10;82.20;;;;;;4994352;28;20117;-54
2021/03/23 11:52:23;;;;;;;71.03;39.63;;;9.00;82.70;;;;;;4993512;28;20129;-52
2021/03/23 11:54:49;;;;;;;78.45;40.08;;;9.10;82.40;;;;;;4992680;28;20042;-51
2021/03/23 11:57:16;;;;;;;73.25;40.85;;;9.00;82.60;;;;;;5008705;28;20133;-51
2021/03/23 11:59:42;;;;;;;79.55;41.85;;;9.00;82.40;;;;;;4989663;28;20034;-51
2021/03/23 12:02:08;;;;;;;80.70;38.92;;;9.00;82.30;;;;;;4991160;28;20049;-54
2021/03/23 12:04:34;;;;;;;62.75;35.22;;;9.10;82.10;;;;;;4986919;28;20076;-53
2021/03/23 12:07:34;;;;;;;61.25;35.03;;;9.10;81.50;;;;;;4991920;28;20070;-50
2021/03/23 12:10:18;;;;;;;68.13;33.88;;;9.20;78.90;;;;;;4990403;28;20038;-53
2021/03/23 12:12:50;;;;;;;57.17;31.58;;;9.20;79.30;;;;;;4991599;28;20039;-54
2021/03/23 12:15:37;;;;;;;57.53;31.55;;;9.20;79.10;;;;;;4990725;28;20490;-51
2021/03/23 12:18:08;;;;;;;59.15;33.47;;;9.20;79.00;;;;;;4985588;28;20581;-52
2021/03/23 12:20:36;;;;;;;54.22;31.85;;;9.30;79.20;;;;;;5004026;28;20459;-54
2021/03/23 12:23:03;;;;;;;56.33;31.83;;;9.40;79.50;;;;;;4992381;28;20034;-53
2021/03/23 12:25:29;;;;;;;53.63;31.13;;;9.40;80.00;;;;;;4992299;28;20045;-52
2021/03/23 12:27:54;;;;;;;59.70;33.25;;;9.40;79.30;;;;;;4985646;28;20046;-51
2021/03/23 12:30:22;;;;;;;60.70;31.73;;;9.40;79.20;;;;;;4985798;28;20051;-54
2021/03/23 12:32:48;;;;;;;56.83;31.52;;;9.40;79.40;;;;;;4991430;28;20054;-51
2021/03/23 12:35:18;;;;;;;54.08;31.15;;;9.40;79.40;;;;;;4982052;28;20526;-50
2021/03/23 12:37:47;;;;;;;56.75;32.75;;;9.50;79.50;;;;;;4983144;28;20495;-51
2021/03/23 12:40:14;;;;;;;53.63;30.98;;;9.50;80.00;;;;;;4986232;28;20133;-51
2021/03/23 12:42:41;;;;;;;54.80;32.25;;;9.50;79.40;;;;;;4992081;28;20454;-52
2021/03/23 12:45:09;;;;;;;57.40;29.77;;;9.50;79.20;;;;;;4992072;28;20089;-55
2021/03/23 12:47:35;;;;;;;54.55;30.90;;;9.50;77.30;;;;;;4987593;28;20399;-54
2021/03/23 12:50:05;;;;;;;48.30;29.42;;;9.50;77.10;;;;;;4993006;28;20042;-54
2021/03/23 12:52:31;;;;;;;56.55;31.85;;;9.70;76.70;;;;;;4993597;28;20093;-51
2021/03/23 12:54:57;;;;;;;48.40;28.50;;;9.80;77.10;;;;;;4988710;28;20047;-51
2021/03/23 12:57:29;;;;;;;54.85;31.48;;;9.80;75.90;;;;;;4981314;28;20134;-51
2021/03/23 12:59:58;;;;;;;53.60;31.90;;;9.90;75.40;;;;;;4990040;28;20038;-52
2021/03/23 13:02:28;;;;;;;53.67;30.95;;;9.90;75.70;;;;;;4985213;28;20047;-53
2021/03/23 13:04:55;;;;;;;50.97;30.77;;;9.90;75.80;;;;;;4989195;28;20047;-53
2021/03/23 13:07:23;;;;;;;55.00;30.60;;;10.10;76.30;;;;;;4992116;28;20050;-51